September 25, 2022

Time Code Weather Temp. Visibility Ceiling Wind METAR/SPECI
03:58
V
11 °C 10 km+ 3,300 ft 250° 250° 10 kt METAR EGQS 250258Z 25010KT 9999 BKN033 11/07 Q1018 RMK BLU
03:20
V
11 °C 10 km+ 3,700 ft 250° 250° 11 kt METAR EGQS 250220Z AUTO 25011KT 9999 BKN037/// 11/07 Q1018
02:50
V
11 °C 10 km+ 3,500 ft 250° 250° 11 kt METAR EGQS 250150Z 25011KT 9999 BKN035 11/07 Q1019 RMK BLU
02:20
V
11 °C 10 km+ 3,100 ft 240° 240° 10 kt METAR EGQS 250120Z AUTO 24010KT 9999 OVC031/// 11/07 Q1019
01:50
V
11 °C 10 km+ 4,000 ft 240° 240° 9 kt METAR EGQS 250050Z 24009KT 9999 SCT032 BKN040 11/06 Q1020 RMK BLU
00:50
V
11 °C 10 km+ 4,000 ft 240° 240° 9 kt METAR EGQS 242350Z 24009KT 9999 BKN040 11/07 Q1020 RMK BLU

September 24, 2022

Time Code Weather Temp. Visibility Ceiling Wind METAR/SPECI
23:50
V
11 °C 10 km+ 4,200 ft 240° 240° 9 kt METAR EGQS 242250Z 24009KT 9999 BKN042 11/07 Q1021 RMK BLU
22:58
V
11 °C 10 km+ 4,500 ft 240° 240° 9 kt METAR EGQS 242158Z 24009KT 9999 FEW035 BKN045 11/07 Q1021 RMK BLU
22:50
V
11 °C 10 km+ 4,200 ft 240° 240° 9 kt METAR EGQS 242150Z AUTO 24009KT 9999 OVC042/// 11/07 Q1021
21:50
V
12 °C 10 km+ 4,800 ft 280° 280° 10 kt METAR EGQS 242050Z 28010KT 9999 BKN048 12/07 Q1022 RMK BLU
20:50
V
12 °C 10 km+ - 300° 300° 10 kt METAR EGQS 241950Z 30010KT 9999 SCT045 12/06 Q1022 RMK BLU
19:50
V
12 °C 10 km+ 25,000 ft 310° 310° 11 kt METAR EGQS 241850Z 31011KT 9999 FEW025 SCT060 BKN250 12/05 Q1022 RMK BLU
18:50
V
12 °C 10 km+ 25,000 ft 310° 310° 7 kt METAR EGQS 241750Z 31007KT 9999 FEW025 BKN250 12/07 Q1022 RMK BLU
17:50
V
13 °C 10 km+ 25,000 ft 320° 320° 11 kt METAR EGQS 241650Z 32011KT 9999 FEW025 SCT060 BKN250 13/07 Q1022 RMK BLU
16:50
V
14 °C 10 km+ 6,000 ft 320° 320° 8 kt METAR EGQS 241550Z 32008KT 9999 FEW025 BKN060 14/06 Q1022 RMK BLU
15:50
V
14 °C 10 km+ 6,000 ft 320° 320° 11 kt METAR EGQS 241450Z 32011KT 9999 FEW025 BKN060 14/07 Q1022 NOSIG RMK BLU BLU
14:50
V
14 °C 10 km+ 6,000 ft 290° 290° 13 kt METAR EGQS 241350Z 29013KT 9999 FEW024 BKN060 14/07 Q1022 NOSIG RMK BLU BLU
13:50
V
14 °C 10 km+ 6,000 ft 300° 300° 10 kt METAR EGQS 241250Z 30010KT 9999 FEW024 BKN060 14/07 Q1022 NOSIG RMK BLU BLU
12:50
V
13 °C 10 km+ 5,500 ft 280° 280° 8 kt METAR EGQS 241150Z 28008KT 9999 FEW018 BKN055 13/08 Q1022 NOSIG RMK BLU BLU
11:50
M
12 °C 10 km+ 1,500 ft 280° 280° 9 kt METAR EGQS 241050Z AUTO 28009KT 9999 BKN015/// BKN057/// 12/08 Q1022
10:50
V
12 °C 10 km+ 5,500 ft 300° 300° 8 kt METAR EGQS 240950Z 30008KT 9999 FEW018 SCT040 BKN055 12/09 Q1022 NOSIG RMK BLU BLU
09:50
V
11 °C 10 km+ 6,000 ft 280° 280° 10 kt METAR EGQS 240850Z 28010KT 9999 FEW018 BKN060 11/09 Q1021 RMK BLU
08:50
V
11 °C 10 km+ 4,600 ft 260° 260° 10 kt METAR EGQS 240750Z 26010KT 9999 VCSH FEW018 BKN046 11/09 Q1021 RMK BLU
07:50
V
9 °C 10 km+ - 250° 250° 8 kt METAR EGQS 240650Z 25008KT 9999 FEW015 SCT050 09/08 Q1020 RMK BLU
06:50
V
10 °C 10 km+ 3,800 ft 280° 280° 8 kt METAR EGQS 240550Z 28008KT 9999 7000S -SHRA FEW013 BKN038 10/09 Q1020 RESHRA RMK WHT
05:50
V
10 °C 10 km+ 4,000 ft 260° 260° 9 kt METAR EGQS 240450Z 26009KT 9999 SCT020 BKN040 10/08 Q1019 RMK WHT
04:50
V
10 °C 10 km+ 4,000 ft 260° 260° 10 kt METAR EGQS 240350Z 26010KT 9999 FEW015 BKN040 10/08 Q1019 RMK BLU
03:50
V
9 °C 10 km+ 4,000 ft 250° 250° 9 kt METAR EGQS 240250Z 25009KT 9999 FEW017 BKN040 09/07 Q1019 RMK BLU
02:50
V
10 °C 10 km+ 4,000 ft 250° 250° 7 kt METAR EGQS 240150Z 25007KT 9999 FEW015 BKN040 10/08 Q1018 RMK BLU
01:50
V
9 °C 10 km+ 5,000 ft 250° 250° 7 kt METAR EGQS 240050Z 25007KT 9999 SCT035 BKN050 09/07 Q1018 RMK BLU
00:50
V
11 °C 10 km+ 4,800 ft 270° 270° 6 kt METAR EGQS 232350Z 27006KT 9999 BKN048 11/08 Q1018 RMK BLU

September 23, 2022

Time Code Weather Temp. Visibility Ceiling Wind METAR/SPECI
23:50
V
11 °C 10 km+ - 280° 280° 7 kt METAR EGQS 232250Z 28007KT CAVOK 11/08 Q1018 RMK BLU
22:50
V
12 °C 10 km+ 4,800 ft 290° 290° 9 kt METAR EGQS 232150Z 29009KT 9999 -SHRA BKN048 12/08 Q1017 RMK BLU
21:50
V
12 °C 10 km+ 4,400 ft 290° 290° 8 kt METAR EGQS 232050Z 29008KT 9999 FEW030 BKN044 12/08 Q1017 RMK BLU
20:50
V
12 °C 10 km+ 6,000 ft 300° 300° 9 kt METAR EGQS 231950Z 30009KT 9999 FEW035 BKN060 12/07 Q1017 RMK BLU
19:50
V
13 °C 10 km+ 6,000 ft 310° 310° 11 kt METAR EGQS 231850Z 31011KT 9999 FEW030 BKN060 13/06 Q1016 RMK BLU
18:50
V
13 °C 10 km+ 6,000 ft 290° 290° 9 kt METAR EGQS 231750Z 29009KT 9999 FEW025 BKN060 13/07 Q1016 RMK BLU
17:50
V
13 °C 10 km+ - 300° 300° 11 kt METAR EGQS 231650Z 30011KT 9999 FEW025 13/07 Q1015 RMK BLU
17:20
V
13 °C 10 km+ - 280° 280° 9 kt METAR EGQS 231620Z AUTO 28009KT 9999 FEW040/// SCT048/// 13/06 Q1015
16:50
V
14 °C 10 km+ - 280° 280° 9 kt METAR EGQS 231550Z 28009KT 9999 FEW030 14/06 Q1015 NOSIG RMK BLU BLU
16:20
V
14 °C 10 km+ - 290° 290° 11 kt METAR EGQS 231520Z 29011KT 9999 FEW020 14/07 Q1015 NOSIG RMK BLU BLU
15:50
V
14 °C 10 km+ - 280° 280° 9 kt METAR EGQS 231450Z 28009KT 9999 FEW020 14/07 Q1015 NOSIG RMK BLU BLU
15:20
V
14 °C 10 km+ 4,800 ft 290° 290° 10 kt METAR EGQS 231420Z 29010KT 9999 -SHRA FEW018 BKN048 14/07 Q1015 TEMPO SCT018 RMK BLU TEMPO WHT
14:50
V
14 °C 10 km+ - 290° 290° 9 kt METAR EGQS 231350Z 29009KT 9999 FEW020 SCT040 14/08 Q1015 NOSIG RMK BLU BLU
14:20
V
15 °C 10 km+ 7,000 ft 290° 290° 9 kt METAR EGQS 231320Z 29009KT 9999 FEW020 SCT042 BKN070 15/07 Q1015 NOSIG RMK BLU BLU
13:50
V
14 °C 10 km+ 7,000 ft 290° 290° 10 kt METAR EGQS 231250Z 29010KT 9999 FEW020 SCT042 BKN070 14/07 Q1015 NOSIG RMK BLU BLU
13:20
V
14 °C 10 km+ 4,200 ft 280° 280° 11 kt METAR EGQS 231220Z 28011KT 9999 -SHRA FEW020 BKN042 14/07 Q1015 NOSIG RMK BLU BLU
12:50
V
14 °C 10 km+ 5,000 ft 280° 280° 12 kt METAR EGQS 231150Z 28012KT 9999 FEW025 BKN050 14/08 Q1015 NOSIG RMK BLU BLU
12:20
V
14 °C 10 km+ 9,000 ft 280° 280° 12 kt METAR EGQS 231120Z 28012KT 9999 FEW025 SCT050 BKN090 14/09 Q1015 NOSIG RMK BLU BLU
11:50
V
15 °C 10 km+ 6,000 ft 250° 250° 11 kt METAR EGQS 231050Z 25011KT 9999 FEW025 BKN060 15/10 Q1015 NOSIG RMK BLU BLU
11:20
V
14 °C 10 km+ - 260° 260° 11 kt METAR EGQS 231020Z 26011KT 9999 FEW025 SCT060 14/09 Q1015 NOSIG RMK BLU BLU
10:50
V
13 °C 10 km+ - 260° 260° 10 kt METAR EGQS 230950Z 26010KT 9999 FEW025 SCT060 13/09 Q1015 NOSIG RMK BLU BLU
10:20
V
14 °C 10 km+ - 250° 250° 10 kt METAR EGQS 230920Z 25010KT 9999 FEW025 SCT070 14/10 Q1015 NOSIG RMK BLU BLU
09:50
V
12 °C 10 km+ - 240° 240° 7 kt METAR EGQS 230850Z 24007KT 9999 FEW025 SCT100 12/09 Q1014 NOSIG RMK BLU BLU
09:20
V
11 °C 10 km+ - 240° 240° 6 kt METAR EGQS 230820Z 24006KT 9999 FEW025 11/09 Q1014 NOSIG RMK BLU BLU
08:50
V
10 °C 10 km+ - 250° 250° 8 kt METAR EGQS 230750Z 25008KT 9999 FEW025 SCT060 10/09 Q1014 NOSIG RMK BLU BLU
08:20
V
9 °C 10 km+ 6,000 ft 230° 230° 5 kt METAR EGQS 230720Z 23005KT 9999 FEW025 BKN060 09/08 Q1014 NOSIG RMK BLU BLU
07:50
V
9 °C 10 km+ 10,000 ft 230° 230° 6 kt METAR EGQS 230650Z 23006KT 9999 FEW025 BKN100 09/08 Q1014 NOSIG RMK BLU BLU
06:50
V
8 °C 10 km+ - 240° 240° 7 kt METAR EGQS 230550Z 24007KT 9999 FEW025 SCT060 08/06 Q1014 RMK BLU
05:50
V
7 °C 10 km+ - 220° 220° 4 kt METAR EGQS 230450Z 22004KT CAVOK 07/06 Q1013 RMK BLU
04:50
V
6 °C 10 km+ - 200° 200° 4 kt METAR EGQS 230350Z 20004KT CAVOK 06/04 Q1013 RMK BLU
03:50
V
7 °C 10 km+ - 220° 220° 4 kt METAR EGQS 230250Z 22004KT CAVOK 07/06 Q1013 RMK BLU
02:50
V
6 °C 10 km+ - 200° 200° 5 kt METAR EGQS 230150Z 20005KT CAVOK 06/04 Q1014 RMK BLU
01:50
V
9 °C 10 km+ - 230° 230° 7 kt METAR EGQS 230050Z 23007KT CAVOK 09/07 Q1013 RMK BLU
00:50
V
9 °C 10 km+ - 230° 230° 9 kt METAR EGQS 222350Z 23009KT 9999 SKC 09/07 Q1014 RMK BLU

September 22, 2022

Time Code Weather Temp. Visibility Ceiling Wind METAR/SPECI
23:50
V
10 °C 10 km+ - 230° 230° 7 kt METAR EGQS 222250Z 23007KT CAVOK 10/08 Q1014 RMK BLU
22:50
V
10 °C 10 km+ - 220° 220° 8 kt METAR EGQS 222150Z 22008KT 9999 SKC 10/08 Q1014 RMK BLU
Older data

We and third parties follow your internet behavior on our website with cookies. If you continue, we assume you agree with our cookie policy. Learn more